Time;durP1;ratioP1;P1;durP2;ratioP2;P2;SDS_P1;SDS_P2;PMS_P1;PMS_P2;Temp;Humidity;BMP_temperature;BMP_pressure;BME280_temperature;BME280_humidity;BME280_pressure;Samples;Min_cycle;Max_cycle;Signal;HPM_P1;HPM_P2
2022/09/21 00:00:27;;;;;;;0.83;0.83;;;;;;;;;;5071245;28;20203;-80
2022/09/21 00:02:56;;;;;;;1.00;1.00;;;;;;;;;;5071818;28;20575;-80
2022/09/21 00:05:23;;;;;;;1.03;1.00;;;;;;;;;;5071553;28;20730;-79
2022/09/21 00:07:50;;;;;;;0.77;0.77;;;;;;;;;;5071718;28;20212;-79
2022/09/21 00:10:18;;;;;;;0.70;0.70;;;;;;;;;;5071545;28;20193;-79
2022/09/21 00:12:47;;;;;;;0.83;0.83;;;;;;;;;;5071452;28;20205;-80
2022/09/21 00:15:16;;;;;;;0.53;0.53;;;;;;;;;;5071577;28;20310;-80
2022/09/21 00:17:43;;;;;;;0.90;0.90;;;;;;;;;;5071720;28;20199;-80
2022/09/21 00:20:10;;;;;;;0.70;0.70;;;;;;;;;;5071260;28;20232;-80
2022/09/21 00:22:37;;;;;;;0.93;0.93;;;;;;;;;;5071490;28;20204;-79
2022/09/21 00:25:04;;;;;;;0.83;0.83;;;;;;;;;;5071506;28;20207;-80
2022/09/21 00:27:31;;;;;;;0.80;0.80;;;;;;;;;;5070621;28;20211;-80
2022/09/21 00:30:01;;;;;;;0.80;0.80;;;;;;;;;;5071002;28;20254;-80
2022/09/21 00:32:30;;;;;;;0.90;0.90;;;;;;;;;;5071157;28;20227;-80
2022/09/21 00:34:57;;;;;;;0.60;0.60;;;;;;;;;;5070930;28;20609;-80
2022/09/21 00:37:24;;;;;;;0.80;0.80;;;;;;;;;;5070857;28;20239;-80
2022/09/21 00:39:52;;;;;;;0.77;0.77;;;;;;;;;;5070761;28;20680;-80
2022/09/21 00:42:20;;;;;;;0.80;0.80;;;;;;;;;;5070743;28;20210;-80
2022/09/21 00:44:47;;;;;;;0.83;0.83;;;;;;;;;;5070933;28;20208;-80
2022/09/21 00:47:17;;;;;;;1.00;1.00;;;;;;;;;;5071154;28;20200;-80
2022/09/21 00:49:48;;;;;;;0.90;0.90;;;;;;;;;;5070740;28;20332;-80
2022/09/21 00:52:16;;;;;;;0.73;0.73;;;;;;;;;;5070900;28;20212;-80
2022/09/21 00:54:45;;;;;;;1.03;1.03;;;;;;;;;;5070394;28;20290;-79
2022/09/21 00:57:13;;;;;;;0.83;0.83;;;;;;;;;;5056634;28;20604;-80
2022/09/21 00:59:40;;;;;;;0.53;0.53;;;;;;;;;;5070698;28;20205;-79
2022/09/21 01:02:07;;;;;;;0.70;0.70;;;;;;;;;;5070793;28;20643;-80
2022/09/21 01:04:35;;;;;;;0.77;0.77;;;;;;;;;;5070767;28;20207;-79
2022/09/21 01:07:05;;;;;;;0.80;0.80;;;;;;;;;;5070535;28;20724;-80
2022/09/21 01:09:32;;;;;;;1.00;1.00;;;;;;;;;;5070460;28;20197;-79
2022/09/21 01:12:07;;;;;;;0.80;0.80;;;;;;;;;;5070416;28;20610;-80
2022/09/21 01:14:48;;;;;;;0.60;0.60;;;;;;;;;;5070098;28;20227;-80
2022/09/21 01:17:18;;;;;;;1.00;1.00;;;;;;;;;;5070943;28;20200;-80
2022/09/21 01:20:16;;;;;;;0.83;0.83;;;;;;;;;;5070202;28;20775;-80
2022/09/21 01:22:54;;;;;;;0.70;0.70;;;;;;;;;;5056100;28;20371;-80
2022/09/21 01:25:31;;;;;;;0.97;0.97;;;;;;;;;;5070007;28;20204;-80
2022/09/21 01:28:05;;;;;;;0.77;0.77;;;;;;;;;;5070253;28;20246;-80
2022/09/21 01:30:34;;;;;;;0.90;0.90;;;;;;;;;;5070133;28;20682;-80
2022/09/21 01:33:06;;;;;;;0.80;0.80;;;;;;;;;;5070723;28;20298;-80
2022/09/21 01:35:36;;;;;;;0.80;0.80;;;;;;;;;;5069896;28;20250;-80
2022/09/21 01:38:04;;;;;;;0.87;0.87;;;;;;;;;;5070724;28;20208;-79
2022/09/21 01:40:33;;;;;;;0.87;0.87;;;;;;;;;;5070394;28;20201;-79
2022/09/21 01:43:01;;;;;;;0.70;0.70;;;;;;;;;;5070059;28;20687;-79
2022/09/21 01:45:30;;;;;;;0.87;0.87;;;;;;;;;;5070577;28;20259;-80
2022/09/21 01:48:00;;;;;;;0.90;0.90;;;;;;;;;;5070218;28;20689;-80
2022/09/21 01:50:31;;;;;;;1.10;1.10;;;;;;;;;;5069215;28;20201;-80
2022/09/21 01:53:01;;;;;;;0.70;0.70;;;;;;;;;;5069970;28;20204;-80
2022/09/21 01:55:31;;;;;;;0.80;0.80;;;;;;;;;;5073192;28;20294;-80
2022/09/21 01:58:01;;;;;;;0.67;0.67;;;;;;;;;;5074295;28;20205;-79
2022/09/21 02:00:30;;;;;;;2.77;1.83;;;;;;;;;;5073879;28;20197;-80
2022/09/21 02:03:03;;;;;;;0.87;0.87;;;;;;;;;;5074113;28;20213;-80
2022/09/21 02:05:30;;;;;;;0.80;0.80;;;;;;;;;;5073266;28;20204;-80
2022/09/21 02:07:58;;;;;;;1.37;0.87;;;;;;;;;;5074040;28;20201;-80
2022/09/21 02:10:29;;;;;;;0.70;0.70;;;;;;;;;;5074159;28;20208;-79
2022/09/21 02:13:00;;;;;;;0.80;0.80;;;;;;;;;;5074080;28;20202;-80
2022/09/21 02:15:33;;;;;;;0.87;0.87;;;;;;;;;;5073483;28;20662;-80
2022/09/21 02:18:07;;;;;;;0.73;0.73;;;;;;;;;;5072844;28;20196;-79
2022/09/21 02:20:39;;;;;;;0.83;0.83;;;;;;;;;;5073547;28;20207;-79
2022/09/21 02:23:11;;;;;;;1.03;1.03;;;;;;;;;;5072582;28;20193;-80
2022/09/21 02:25:44;;;;;;;0.80;0.80;;;;;;;;;;5071999;28;20318;-79
2022/09/21 02:28:19;;;;;;;0.90;0.90;;;;;;;;;;5073418;28;20298;-79
2022/09/21 02:30:54;;;;;;;0.50;0.50;;;;;;;;;;5073656;28;20697;-79
2022/09/21 02:33:26;;;;;;;0.50;0.50;;;;;;;;;;5073099;28;20224;-80
2022/09/21 02:35:56;;;;;;;1.27;1.27;;;;;;;;;;5073193;28;20302;-79
2022/09/21 02:38:32;;;;;;;1.00;1.00;;;;;;;;;;5073153;28;20197;-79
2022/09/21 02:41:05;;;;;;;0.80;0.80;;;;;;;;;;5073105;28;20587;-79
2022/09/21 02:43:35;;;;;;;0.97;0.97;;;;;;;;;;5072034;28;20204;-80
2022/09/21 02:46:08;;;;;;;0.70;0.70;;;;;;;;;;5072728;28;20664;-80
2022/09/21 02:48:38;;;;;;;0.70;0.70;;;;;;;;;;5071624;28;20193;-80
2022/09/21 02:51:10;;;;;;;0.73;0.73;;;;;;;;;;5073120;28;20212;-79
2022/09/21 02:53:38;;;;;;;0.60;0.60;;;;;;;;;;5072959;28;20491;-80
2022/09/21 02:56:06;;;;;;;0.80;0.80;;;;;;;;;;5072877;28;20231;-80
2022/09/21 02:58:35;;;;;;;0.90;0.90;;;;;;;;;;5073166;28;20205;-80
2022/09/21 03:01:06;;;;;;;0.77;0.77;;;;;;;;;;5073073;28;20702;-80
2022/09/21 03:03:33;;;;;;;0.83;0.83;;;;;;;;;;5072965;28;20212;-80
2022/09/21 03:06:01;;;;;;;0.90;0.80;;;;;;;;;;5072275;28;20262;-80
2022/09/21 03:08:29;;;;;;;0.70;0.70;;;;;;;;;;5072924;28;20256;-80
2022/09/21 03:10:56;;;;;;;0.83;0.83;;;;;;;;;;5067662;28;20212;-79
2022/09/21 03:13:23;;;;;;;0.60;0.60;;;;;;;;;;5071951;28;20258;-81
2022/09/21 03:15:50;;;;;;;1.00;1.00;;;;;;;;;;5072451;28;20645;-82
2022/09/21 03:18:17;;;;;;;1.17;1.17;;;;;;;;;;5071820;28;20286;-81
2022/09/21 03:20:45;;;;;;;1.10;1.10;;;;;;;;;;5058430;28;20195;-81
2022/09/21 03:23:14;;;;;;;1.23;0.90;;;;;;;;;;5072586;28;20562;-81
2022/09/21 03:25:43;;;;;;;0.77;0.77;;;;;;;;;;5072570;28;20201;-82
2022/09/21 03:28:12;;;;;;;0.83;0.83;;;;;;;;;;5072266;28;20683;-82
2022/09/21 03:30:39;;;;;;;1.13;1.07;;;;;;;;;;5072351;28;20204;-82
2022/09/21 03:33:07;;;;;;;1.10;1.10;;;;;;;;;;5071967;28;20229;-82
2022/09/21 03:35:34;;;;;;;0.97;0.97;;;;;;;;;;5072169;28;20252;-82
2022/09/21 03:38:01;;;;;;;0.80;0.80;;;;;;;;;;5072192;28;20749;-81
2022/09/21 03:40:30;;;;;;;0.80;0.80;;;;;;;;;;5072031;28;20205;-82
2022/09/21 03:42:56;;;;;;;1.00;1.00;;;;;;;;;;5072187;28;20201;-81
2022/09/21 03:45:23;;;;;;;0.70;0.70;;;;;;;;;;5071518;28;20209;-82
2022/09/21 03:47:50;;;;;;;0.80;0.80;;;;;;;;;;5070909;28;20217;-81
2022/09/21 03:50:17;;;;;;;0.80;0.80;;;;;;;;;;5071913;28;20193;-81
2022/09/21 03:52:44;;;;;;;0.90;0.90;;;;;;;;;;5072348;28;20208;-81
2022/09/21 03:55:11;;;;;;;1.10;1.10;;;;;;;;;;5071295;28;20314;-84
2022/09/21 03:57:39;;;;;;;1.90;1.80;;;;;;;;;;5069644;28;20198;-78
2022/09/21 04:00:08;;;;;;;1.07;1.00;;;;;;;;;;5070450;28;20598;-78
2022/09/21 04:02:35;;;;;;;1.00;1.00;;;;;;;;;;5071394;28;20240;-78
2022/09/21 04:05:02;;;;;;;1.10;1.10;;;;;;;;;;5071068;28;20205;-82
2022/09/21 04:07:31;;;;;;;0.70;0.70;;;;;;;;;;5071850;28;20201;-84
2022/09/21 04:09:58;;;;;;;1.03;1.03;;;;;;;;;;5065085;28;20587;-82
2022/09/21 04:12:25;;;;;;;0.87;0.87;;;;;;;;;;5059948;28;20197;-81
2022/09/21 04:14:53;;;;;;;1.37;1.27;;;;;;;;;;5050686;28;20206;-81
2022/09/21 04:17:20;;;;;;;1.27;1.17;;;;;;;;;;5066940;28;20358;-81
2022/09/21 04:19:47;;;;;;;1.10;1.00;;;;;;;;;;5070821;28;20197;-81
2022/09/21 04:22:14;;;;;;;1.73;1.63;;;;;;;;;;5071252;28;20208;-81
2022/09/21 04:24:41;;;;;;;1.17;1.17;;;;;;;;;;5071242;28;20197;-81
2022/09/21 04:27:08;;;;;;;0.90;0.90;;;;;;;;;;5071100;28;20217;-81
2022/09/21 04:29:34;;;;;;;0.90;0.90;;;;;;;;;;5070959;28;20196;-81
2022/09/21 04:32:03;;;;;;;1.13;1.13;;;;;;;;;;5071214;28;20229;-81
2022/09/21 04:34:31;;;;;;;0.90;0.90;;;;;;;;;;5069385;28;20216;-81
2022/09/21 04:36:58;;;;;;;1.23;1.13;;;;;;;;;;5070384;28;20225;-81
2022/09/21 04:39:25;;;;;;;1.00;0.90;;;;;;;;;;5069810;28;20668;-82
2022/09/21 04:41:51;;;;;;;1.30;1.20;;;;;;;;;;5069832;28;20204;-82
2022/09/21 04:44:18;;;;;;;0.90;0.90;;;;;;;;;;5069815;28;20273;-82
2022/09/21 04:46:45;;;;;;;0.80;0.80;;;;;;;;;;5069963;28;20680;-82
2022/09/21 04:49:13;;;;;;;0.70;0.70;;;;;;;;;;5070549;28;20311;-82
2022/09/21 04:51:40;;;;;;;0.90;0.90;;;;;;;;;;5070820;28;20205;-82
2022/09/21 04:54:07;;;;;;;1.00;1.00;;;;;;;;;;5070788;28;20212;-82
2022/09/21 04:56:34;;;;;;;1.03;1.03;;;;;;;;;;5070860;28;20232;-82
2022/09/21 04:59:01;;;;;;;1.07;1.07;;;;;;;;;;5070702;28;20627;-82
2022/09/21 05:01:27;;;;;;;1.10;1.07;;;;;;;;;;5070901;28;20209;-82
2022/09/21 05:03:54;;;;;;;0.90;0.90;;;;;;;;;;5070463;28;20686;-81
2022/09/21 05:06:22;;;;;;;0.80;0.80;;;;;;;;;;5071122;28;20205;-82
2022/09/21 05:11:33;;;;;;;0.90;0.90;;;;;;;;;;5070703;28;20286;-82
2022/09/21 05:14:00;;;;;;;0.97;0.97;;;;;;;;;;5070219;28;20213;-82
2022/09/21 05:16:27;;;;;;;1.07;1.07;;;;;;;;;;5070759;28;20228;-82
2022/09/21 05:18:54;;;;;;;0.90;0.90;;;;;;;;;;5070248;28;20205;-82
2022/09/21 05:21:23;;;;;;;1.37;1.37;;;;;;;;;;5070237;28;20346;-82
2022/09/21 05:23:49;;;;;;;0.87;0.87;;;;;;;;;;5070212;28;20208;-81
2022/09/21 05:26:16;;;;;;;0.80;0.80;;;;;;;;;;5070777;28;20200;-82
2022/09/21 05:28:43;;;;;;;0.77;0.77;;;;;;;;;;5070302;28;20197;-82
2022/09/21 05:31:17;;;;;;;1.10;1.10;;;;;;;;;;5070139;28;20197;-82
2022/09/21 05:33:48;;;;;;;0.63;0.63;;;;;;;;;;5070518;28;20224;-82
2022/09/21 05:36:29;;;;;;;0.73;0.73;;;;;;;;;;5070466;28;20216;-82
2022/09/21 05:38:56;;;;;;;1.20;1.20;;;;;;;;;;5063492;28;20675;-82
2022/09/21 05:41:23;;;;;;;1.30;0.90;;;;;;;;;;5070096;28;20271;-82
2022/09/21 05:43:51;;;;;;;0.70;0.70;;;;;;;;;;5069876;28;20276;-81
2022/09/21 05:46:20;;;;;;;0.93;0.93;;;;;;;;;;5070126;28;20201;-81
2022/09/21 05:48:52;;;;;;;1.10;1.00;;;;;;;;;;5070325;28;20197;-82
2022/09/21 05:51:30;;;;;;;0.70;0.70;;;;;;;;;;5070287;28;20209;-82
2022/09/21 05:53:59;;;;;;;1.10;1.10;;;;;;;;;;5070255;28;20633;-81
2022/09/21 05:56:36;;;;;;;1.30;1.27;;;;;;;;;;5069986;28;20222;-81
2022/09/21 05:59:11;;;;;;;0.90;0.90;;;;;;;;;;5069788;28;20213;-81
2022/09/21 06:01:44;;;;;;;0.93;0.93;;;;;;;;;;5069937;28;20215;-81
2022/09/21 06:04:12;;;;;;;1.00;1.00;;;;;;;;;;5069967;28;20208;-82
2022/09/21 06:06:40;;;;;;;1.20;1.10;;;;;;;;;;5070258;28;20256;-80
2022/09/21 06:09:10;;;;;;;0.90;0.90;;;;;;;;;;5055773;28;20269;-79
2022/09/21 06:11:37;;;;;;;1.07;0.97;;;;;;;;;;5069648;28;20205;-81
2022/09/21 06:14:03;;;;;;;0.77;0.77;;;;;;;;;;5069967;28;20197;-82
2022/09/21 06:16:37;;;;;;;0.97;0.97;;;;;;;;;;5070017;28;20613;-79
2022/09/21 06:19:04;;;;;;;1.00;1.00;;;;;;;;;;5069760;28;20214;-80
2022/09/21 06:21:30;;;;;;;2.83;0.90;;;;;;;;;;5069559;28;20211;-80
2022/09/21 06:23:59;;;;;;;1.10;0.87;;;;;;;;;;5069604;28;20300;-80
2022/09/21 06:26:27;;;;;;;0.60;0.60;;;;;;;;;;5070082;28;20215;-80
2022/09/21 06:28:54;;;;;;;0.73;0.73;;;;;;;;;;5069526;28;20236;-80
2022/09/21 06:31:21;;;;;;;2.10;1.20;;;;;;;;;;5069990;28;20584;-80
2022/09/21 06:33:47;;;;;;;0.87;0.80;;;;;;;;;;5069914;28;20773;-80
2022/09/21 06:36:14;;;;;;;0.60;0.60;;;;;;;;;;5069750;28;20714;-80
2022/09/21 06:38:41;;;;;;;0.50;0.50;;;;;;;;;;5069019;28;20671;-80
2022/09/21 06:41:09;;;;;;;0.70;0.70;;;;;;;;;;5072443;28;20215;-79
2022/09/21 06:43:36;;;;;;;0.60;0.60;;;;;;;;;;5059188;28;20663;-80
2022/09/21 06:46:04;;;;;;;0.63;0.63;;;;;;;;;;5072975;28;20215;-80
2022/09/21 06:48:33;;;;;;;0.70;0.70;;;;;;;;;;5066543;28;20205;-79
2022/09/21 06:51:00;;;;;;;0.63;0.63;;;;;;;;;;5072993;28;20749;-80
2022/09/21 06:53:27;;;;;;;0.77;0.77;;;;;;;;;;5073028;28;20197;-83
2022/09/21 06:55:54;;;;;;;0.70;0.70;;;;;;;;;;5073191;28;20201;-80
2022/09/21 06:58:22;;;;;;;0.67;0.67;;;;;;;;;;5072940;28;20208;-81
2022/09/21 07:00:49;;;;;;;0.80;0.80;;;;;;;;;;5072809;28;20205;-81
2022/09/21 07:03:18;;;;;;;0.50;0.50;;;;;;;;;;5073312;28;20197;-80
2022/09/21 07:05:45;;;;;;;2.10;0.60;;;;;;;;;;5059241;28;20205;-82
2022/09/21 07:08:12;;;;;;;0.50;0.50;;;;;;;;;;5073050;28;20224;-80
2022/09/21 07:10:39;;;;;;;0.70;0.70;;;;;;;;;;5072431;28;20207;-80
2022/09/21 07:13:08;;;;;;;0.67;0.67;;;;;;;;;;5073234;28;20636;-81
2022/09/21 07:15:38;;;;;;;0.60;0.60;;;;;;;;;;5072430;28;20763;-80
2022/09/21 07:18:12;;;;;;;0.77;0.77;;;;;;;;;;5072528;28;20228;-81
2022/09/21 07:20:39;;;;;;;0.63;0.63;;;;;;;;;;5072536;28;20208;-80
2022/09/21 07:23:10;;;;;;;0.80;0.80;;;;;;;;;;5072747;28;20201;-79
2022/09/21 07:25:38;;;;;;;0.60;0.60;;;;;;;;;;5072636;28;20628;-81
2022/09/21 07:28:05;;;;;;;0.83;0.83;;;;;;;;;;5072632;28;20288;-80
2022/09/21 07:30:31;;;;;;;0.80;0.80;;;;;;;;;;5072067;28;20212;-80
2022/09/21 07:33:00;;;;;;;0.50;0.50;;;;;;;;;;5072565;28;20233;-80
2022/09/21 07:35:26;;;;;;;0.60;0.60;;;;;;;;;;5072364;28;20209;-79
2022/09/21 07:37:55;;;;;;;0.70;0.70;;;;;;;;;;5072458;28;20621;-82
2022/09/21 07:40:22;;;;;;;0.73;0.73;;;;;;;;;;5072110;28;20235;-80
2022/09/21 07:42:48;;;;;;;0.70;0.70;;;;;;;;;;5072573;28;20201;-81
2022/09/21 07:45:17;;;;;;;0.70;0.70;;;;;;;;;;5071670;28;20201;-80
2022/09/21 07:47:45;;;;;;;1.03;0.90;;;;;;;;;;5072342;28;20232;-80
2022/09/21 07:50:13;;;;;;;0.60;0.60;;;;;;;;;;5072106;28;20213;-80
2022/09/21 07:52:40;;;;;;;0.63;0.63;;;;;;;;;;5072053;28;20205;-80
2022/09/21 07:55:07;;;;;;;0.40;0.40;;;;;;;;;;5071893;28;20203;-79
2022/09/21 08:00:19;;;;;;;0.70;0.70;;;;;;;;;;5071851;28;20818;-80
2022/09/21 08:02:45;;;;;;;0.60;0.60;;;;;;;;;;5072133;28;20318;-80
2022/09/21 08:05:13;;;;;;;3.00;2.03;;;;;;;;;;5071742;28;20209;-80
2022/09/21 08:07:40;;;;;;;2.03;1.87;;;;;;;;;;5071891;28;20199;-81
2022/09/21 08:10:08;;;;;;;0.73;0.70;;;;;;;;;;5071347;28;20571;-80
2022/09/21 08:12:35;;;;;;;0.80;0.80;;;;;;;;;;5071733;28;20200;-80
2022/09/21 08:15:02;;;;;;;1.17;1.10;;;;;;;;;;5071487;28;20202;-79
2022/09/21 08:17:28;;;;;;;0.57;0.57;;;;;;;;;;5071566;28;20305;-81
2022/09/21 08:19:55;;;;;;;0.63;0.63;;;;;;;;;;5071004;28;20207;-80
2022/09/21 08:22:24;;;;;;;0.60;0.60;;;;;;;;;;5071514;28;20201;-80
2022/09/21 08:24:51;;;;;;;0.53;0.53;;;;;;;;;;5070967;28;20231;-82
2022/09/21 08:27:19;;;;;;;0.70;0.70;;;;;;;;;;5071861;28;20212;-80
2022/09/21 08:29:46;;;;;;;0.90;0.90;;;;;;;;;;5070982;28;20203;-80
2022/09/21 08:32:12;;;;;;;0.77;0.77;;;;;;;;;;5071384;28;20315;-80
2022/09/21 08:34:39;;;;;;;0.47;0.47;;;;;;;;;;5071024;28;20260;-80
2022/09/21 08:37:06;;;;;;;0.40;0.40;;;;;;;;;;5071164;28;20729;-80
2022/09/21 08:39:34;;;;;;;0.50;0.50;;;;;;;;;;5070686;28;20212;-79
2022/09/21 08:42:18;;;;;;;0.50;0.50;;;;;;;;;;5070876;28;20257;-80
2022/09/21 08:44:49;;;;;;;0.53;0.53;;;;;;;;;;5070915;28;20731;-79
2022/09/21 08:47:19;;;;;;;0.70;0.70;;;;;;;;;;5071320;28;20208;-80
2022/09/21 08:49:48;;;;;;;0.60;0.60;;;;;;;;;;5070508;28;20678;-79
2022/09/21 08:52:16;;;;;;;0.70;0.70;;;;;;;;;;5070856;28;20627;-80
2022/09/21 08:54:49;;;;;;;0.70;0.70;;;;;;;;;;5070680;28;20210;-79
2022/09/21 08:57:18;;;;;;;0.80;0.80;;;;;;;;;;5071039;28;20255;-79
2022/09/21 08:59:47;;;;;;;2.10;0.83;;;;;;;;;;5070808;28;20579;-79
2022/09/21 09:02:41;;;;;;;0.50;0.50;;;;;;;;;;5070394;28;20200;-79
2022/09/21 09:05:23;;;;;;;0.80;0.80;;;;;;;;;;5070718;28;20208;-79
2022/09/21 09:08:07;;;;;;;0.60;0.60;;;;;;;;;;5071128;28;20204;-79
2022/09/21 09:10:38;;;;;;;0.70;0.70;;;;;;;;;;5070036;28;20207;-80
2022/09/21 09:13:17;;;;;;;0.77;0.77;;;;;;;;;;5071043;28;20287;-80
2022/09/21 09:15:59;;;;;;;0.60;0.60;;;;;;;;;;5070423;28;20203;-80
2022/09/21 09:18:34;;;;;;;0.43;0.43;;;;;;;;;;5070856;28;20288;-79
2022/09/21 09:21:04;;;;;;;0.60;0.60;;;;;;;;;;5056228;28;20223;-80
2022/09/21 09:23:33;;;;;;;0.60;0.60;;;;;;;;;;5070640;28;20205;-79
2022/09/21 09:26:05;;;;;;;0.57;0.57;;;;;;;;;;5070489;28;20209;-79
2022/09/21 09:28:36;;;;;;;0.50;0.50;;;;;;;;;;5070140;28;20193;-80
2022/09/21 09:31:06;;;;;;;0.70;0.70;;;;;;;;;;5070524;28;20209;-80
2022/09/21 09:33:44;;;;;;;0.50;0.50;;;;;;;;;;5070421;28;20597;-80
2022/09/21 09:36:12;;;;;;;0.40;0.40;;;;;;;;;;5070239;28;20591;-80
2022/09/21 09:38:41;;;;;;;0.73;0.73;;;;;;;;;;5069928;28;20722;-80
2022/09/21 09:41:18;;;;;;;0.67;0.67;;;;;;;;;;5070407;28;20210;-80
2022/09/21 09:43:54;;;;;;;0.40;0.40;;;;;;;;;;5070242;28;20623;-81
2022/09/21 09:46:28;;;;;;;0.57;0.57;;;;;;;;;;5070311;28;21026;-80
2022/09/21 09:49:11;;;;;;;0.80;0.80;;;;;;;;;;5070203;28;20306;-80
2022/09/21 09:51:39;;;;;;;0.80;0.80;;;;;;;;;;5070334;28;20809;-79
2022/09/21 09:54:05;;;;;;;4.17;2.80;;;;;;;;;;5069869;28;20259;-79
2022/09/21 09:56:33;;;;;;;2.37;1.90;;;;;;;;;;5069828;28;20205;-80
2022/09/21 09:59:07;;;;;;;0.90;0.90;;;;;;;;;;5069992;28;20228;-79
2022/09/21 10:01:38;;;;;;;3.43;2.20;;;;;;;;;;5070509;28;20215;-79
2022/09/21 10:04:06;;;;;;;1.57;1.20;;;;;;;;;;5070228;28;20208;-80
2022/09/21 10:06:33;;;;;;;0.70;0.70;;;;;;;;;;5070192;28;20288;-79
2022/09/21 10:09:00;;;;;;;0.73;0.73;;;;;;;;;;5069263;28;20204;-79
2022/09/21 10:11:37;;;;;;;0.70;0.70;;;;;;;;;;5070135;28;20349;-79
2022/09/21 10:14:10;;;;;;;0.70;0.70;;;;;;;;;;5069592;28;20698;-79
2022/09/21 10:16:41;;;;;;;0.80;0.80;;;;;;;;;;5073234;28;20205;-79
2022/09/21 10:19:15;;;;;;;0.77;0.77;;;;;;;;;;5073502;28;20232;-79
2022/09/21 10:21:43;;;;;;;0.87;0.87;;;;;;;;;;5073513;28;20212;-79
2022/09/21 10:24:20;;;;;;;0.60;0.60;;;;;;;;;;5073436;28;20231;-80
2022/09/21 10:26:50;;;;;;;0.60;0.60;;;;;;;;;;5073701;28;20200;-78
2022/09/21 10:29:20;;;;;;;0.60;0.60;;;;;;;;;;5073147;28;20214;-79
2022/09/21 10:31:57;;;;;;;1.90;0.80;;;;;;;;;;5073493;28;20254;-79
2022/09/21 10:34:32;;;;;;;0.90;0.90;;;;;;;;;;5073364;28;20215;-79
2022/09/21 10:37:00;;;;;;;0.93;0.93;;;;;;;;;;5073396;28;20216;-79
2022/09/21 10:39:29;;;;;;;0.70;0.70;;;;;;;;;;5073315;28;20209;-79
2022/09/21 10:42:02;;;;;;;0.60;0.60;;;;;;;;;;5073588;28;20699;-80
2022/09/21 10:44:39;;;;;;;1.03;1.03;;;;;;;;;;5072940;28;20200;-79
2022/09/21 10:47:19;;;;;;;0.73;0.60;;;;;;;;;;5073395;28;20264;-79
2022/09/21 10:49:49;;;;;;;2.40;2.20;;;;;;;;;;5073169;28;20208;-79
2022/09/21 10:52:17;;;;;;;1.60;1.17;;;;;;;;;;5073330;28;20628;-79
2022/09/21 10:54:45;;;;;;;0.60;0.60;;;;;;;;;;5072677;28;20294;-79
2022/09/21 10:57:18;;;;;;;0.57;0.57;;;;;;;;;;5073193;28;20208;-79
2022/09/21 10:59:45;;;;;;;0.50;0.50;;;;;;;;;;5072962;28;20204;-79
2022/09/21 11:02:28;;;;;;;0.80;0.80;;;;;;;;;;5072963;28;20212;-79
2022/09/21 11:04:58;;;;;;;1.73;1.47;;;;;;;;;;5072631;28;20206;-78
2022/09/21 11:07:29;;;;;;;1.67;1.57;;;;;;;;;;5058976;28;20212;-78
2022/09/21 11:10:00;;;;;;;1.33;1.23;;;;;;;;;;5072814;28;20204;-79
2022/09/21 11:12:36;;;;;;;0.90;0.90;;;;;;;;;;5072657;28;20635;-79
2022/09/21 11:15:14;;;;;;;0.70;0.70;;;;;;;;;;5072629;28;20204;-79
2022/09/21 11:17:44;;;;;;;0.90;0.90;;;;;;;;;;5072615;28;20228;-79
2022/09/21 11:20:21;;;;;;;0.50;0.50;;;;;;;;;;5072523;28;20208;-79
2022/09/21 11:22:54;;;;;;;0.70;0.70;;;;;;;;;;5072498;28;20197;-79
2022/09/21 11:25:29;;;;;;;0.60;0.60;;;;;;;;;;5072490;28;20205;-79
2022/09/21 11:28:04;;;;;;;0.57;0.57;;;;;;;;;;5072589;28;20668;-79
2022/09/21 11:30:41;;;;;;;0.60;0.60;;;;;;;;;;5072162;28;20203;-79
2022/09/21 11:33:22;;;;;;;0.47;0.40;;;;;;;;;;5072153;28;20232;-79
2022/09/21 11:35:57;;;;;;;0.50;0.50;;;;;;;;;;5072252;28;20204;-79
2022/09/21 11:38:35;;;;;;;0.60;0.60;;;;;;;;;;5072524;28;20216;-81
2022/09/21 11:41:14;;;;;;;3.30;0.87;;;;;;;;;;5072529;28;20209;-92
2022/09/21 11:44:01;;;;;;;1.47;0.80;;;;;;;;;;5059424;28;20208;-85
2022/09/21 11:46:33;;;;;;;0.97;0.70;;;;;;;;;;5072541;28;20596;-87
2022/09/21 11:49:12;;;;;;;0.60;0.60;;;;;;;;;;5072411;28;20207;-83
2022/09/21 11:51:51;;;;;;;0.50;0.50;;;;;;;;;;5072577;28;20214;-85
2022/09/21 11:54:56;;;;;;;0.60;0.60;;;;;;;;;;5072597;28;20209;-88
2022/09/21 11:57:27;;;;;;;0.53;0.53;;;;;;;;;;5060251;28;20275;-88
2022/09/21 12:00:05;;;;;;;0.53;0.53;;;;;;;;;;5073127;28;20209;-87
2022/09/21 12:03:07;;;;;;;0.73;0.73;;;;;;;;;;5072808;28;20597;-87
2022/09/21 12:05:39;;;;;;;0.60;0.60;;;;;;;;;;5071952;28;20206;-86
2022/09/21 12:08:24;;;;;;;0.70;0.70;;;;;;;;;;5071445;28;20212;-88
2022/09/21 12:10:56;;;;;;;0.53;0.53;;;;;;;;;;5058660;28;20267;-88
2022/09/21 12:13:29;;;;;;;0.57;0.57;;;;;;;;;;5072566;28;20209;-89
2022/09/21 12:16:05;;;;;;;0.60;0.60;;;;;;;;;;5058793;28;20212;-89
2022/09/21 12:18:35;;;;;;;0.70;0.70;;;;;;;;;;5072689;28;20224;-89
2022/09/21 12:21:11;;;;;;;0.50;0.50;;;;;;;;;;5072808;28;20231;-90
2022/09/21 12:23:42;;;;;;;0.70;0.70;;;;;;;;;;5072612;28;20695;-90
2022/09/21 12:26:10;;;;;;;0.60;0.60;;;;;;;;;;5058901;28;20205;-90
2022/09/21 12:28:41;;;;;;;0.50;0.50;;;;;;;;;;5072285;28;20204;-91
2022/09/21 12:31:16;;;;;;;1.13;1.03;;;;;;;;;;5072419;28;20209;-91
2022/09/21 12:33:45;;;;;;;0.50;0.50;;;;;;;;;;5072118;28;20224;-91
2022/09/21 12:36:16;;;;;;;0.57;0.57;;;;;;;;;;5072746;28;20292;-91
2022/09/21 12:38:46;;;;;;;0.80;0.80;;;;;;;;;;5071533;28;20221;-91
2022/09/21 12:41:16;;;;;;;0.70;0.70;;;;;;;;;;5071736;28;20199;-90
2022/09/21 12:43:45;;;;;;;7.40;3.93;;;;;;;;;;5072127;28;20689;-89
2022/09/21 12:46:16;;;;;;;3.23;2.10;;;;;;;;;;5072224;28;20205;-88
2022/09/21 12:48:44;;;;;;;0.83;0.83;;;;;;;;;;5058052;28;20223;-88
2022/09/21 12:51:15;;;;;;;0.87;0.87;;;;;;;;;;5071624;28;20262;-88
2022/09/21 12:53:45;;;;;;;0.80;0.80;;;;;;;;;;5070053;28;20299;-87
2022/09/21 12:56:14;;;;;;;0.83;0.80;;;;;;;;;;5065191;28;20218;-87
2022/09/21 12:58:52;;;;;;;0.80;0.80;;;;;;;;;;5070969;28;20234;-87
2022/09/21 13:01:33;;;;;;;1.03;0.70;;;;;;;;;;5071335;28;20207;-87
2022/09/21 13:04:25;;;;;;;0.60;0.60;;;;;;;;;;5057185;28;20211;-86
2022/09/21 13:07:29;;;;;;;0.90;0.90;;;;;;;;;;5070884;28;20294;-87
2022/09/21 13:09:56;;;;;;;0.60;0.60;;;;;;;;;;5070865;28;20210;-85
2022/09/21 13:12:25;;;;;;;0.80;0.80;;;;;;;;;;5070679;28;20638;-86
2022/09/21 13:14:57;;;;;;;1.00;1.00;;;;;;;;;;5070636;28;20215;-86
2022/09/21 13:17:29;;;;;;;0.97;0.97;;;;;;;;;;5070741;28;20196;-86
2022/09/21 13:19:58;;;;;;;0.80;0.80;;;;;;;;;;5070698;28;20293;-85
2022/09/21 13:22:26;;;;;;;2.13;1.40;;;;;;;;;;5070861;28;20196;-84
2022/09/21 13:25:01;;;;;;;1.10;1.10;;;;;;;;;;5070350;28;20596;-84
2022/09/21 13:28:06;;;;;;;1.77;0.97;;;;;;;;;;5070287;28;20260;-84
2022/09/21 13:30:37;;;;;;;1.50;1.40;;;;;;;;;;5070399;28;20202;-84
2022/09/21 13:33:32;;;;;;;1.50;1.40;;;;;;;;;;5069063;28;20235;-84
2022/09/21 13:36:29;;;;;;;1.20;0.90;;;;;;;;;;5070298;28;20345;-84
2022/09/21 13:39:17;;;;;;;0.53;0.53;;;;;;;;;;5059601;28;20224;-83
2022/09/21 13:41:44;;;;;;;0.53;0.53;;;;;;;;;;5069991;28;20207;-83
2022/09/21 13:44:20;;;;;;;0.40;0.40;;;;;;;;;;5070487;28;20613;-83
2022/09/21 13:46:57;;;;;;;0.60;0.60;;;;;;;;;;5070630;28;20206;-83
2022/09/21 13:49:32;;;;;;;0.80;0.80;;;;;;;;;;5071511;28;20208;-84
2022/09/21 13:52:01;;;;;;;0.33;0.33;;;;;;;;;;5074352;28;20641;-83
2022/09/21 13:54:32;;;;;;;0.60;0.60;;;;;;;;;;5074616;28;20208;-84
2022/09/21 13:57:08;;;;;;;0.43;0.43;;;;;;;;;;5074074;28;20793;-83
2022/09/21 13:59:37;;;;;;;0.67;0.67;;;;;;;;;;5074248;28;20311;-82
2022/09/21 14:02:24;;;;;;;0.40;0.40;;;;;;;;;;5074184;28;20260;-85
2022/09/21 14:04:52;;;;;;;0.50;0.50;;;;;;;;;;5074509;28;20199;-89
2022/09/21 14:07:19;;;;;;;0.40;0.40;;;;;;;;;;5074968;28;20218;-88
2022/09/21 14:09:55;;;;;;;0.50;0.50;;;;;;;;;;5075024;28;20206;-89
2022/09/21 14:12:25;;;;;;;0.67;0.67;;;;;;;;;;5075099;28;20595;-89
2022/09/21 14:15:24;;;;;;;0.60;0.60;;;;;;;;;;5074736;28;20205;-87
2022/09/21 14:18:23;;;;;;;0.73;0.73;;;;;;;;;;5058910;28;20263;-88
2022/09/21 14:21:15;;;;;;;0.60;0.60;;;;;;;;;;5051688;28;20200;-87
2022/09/21 14:24:09;;;;;;;0.37;0.37;;;;;;;;;;5074323;28;20201;-87
2022/09/21 14:26:50;;;;;;;0.50;0.50;;;;;;;;;;5073471;28;20765;-87
2022/09/21 14:29:21;;;;;;;0.50;0.50;;;;;;;;;;5072561;28;20205;-87
2022/09/21 14:31:48;;;;;;;0.60;0.60;;;;;;;;;;5072732;28;20205;-86
2022/09/21 14:34:18;;;;;;;0.60;0.60;;;;;;;;;;5074348;28;20201;-88
2022/09/21 14:36:49;;;;;;;0.83;0.83;;;;;;;;;;5074133;28;20290;-87
2022/09/21 14:39:18;;;;;;;0.87;0.87;;;;;;;;;;5073971;28;20666;-87
2022/09/21 14:41:45;;;;;;;1.10;1.10;;;;;;;;;;5074046;28;20722;-87
2022/09/21 14:44:19;;;;;;;1.43;1.23;;;;;;;;;;5073412;28;20259;-87
2022/09/21 14:47:16;;;;;;;0.70;0.70;;;;;;;;;;5071215;28;20721;-85
2022/09/21 14:50:04;;;;;;;1.07;1.07;;;;;;;;;;5061074;28;20289;-82
2022/09/21 14:52:38;;;;;;;1.00;1.00;;;;;;;;;;5072746;28;20251;-88
2022/09/21 14:55:16;;;;;;;0.60;0.60;;;;;;;;;;5073444;28;20216;-88
2022/09/21 14:57:53;;;;;;;0.83;0.50;;;;;;;;;;5073702;28;20239;-89
2022/09/21 15:00:22;;;;;;;0.70;0.70;;;;;;;;;;5072160;28;20863;-88
2022/09/21 15:02:59;;;;;;;1.23;1.10;;;;;;;;;;5073446;28;20201;-87
2022/09/21 15:05:30;;;;;;;1.70;1.20;;;;;;;;;;5073766;28;20209;-88
2022/09/21 15:11:11;;;;;;;1.07;1.07;;;;;;;;;;5060230;28;20846;-88
2022/09/21 15:13:52;;;;;;;1.77;1.67;;;;;;;;;;5073658;28;20220;-88
2022/09/21 15:16:35;;;;;;;2.20;2.00;;;;;;;;;;5073485;28;20747;-88